Time;durP1;ratioP1;P1;durP2;ratioP2;P2;SDS_P1;SDS_P2;PMS_P1;PMS_P2;Temp;Humidity;BMP_temperature;BMP_pressure;BME280_temperature;BME280_humidity;BME280_pressure;Samples;Min_cycle;Max_cycle;Signal;HPM_P1;HPM_P2
2022/06/11 00:00:51;;;;;;;5.47;4.90;;;20.80;39.50;;;;;;5051925;28;20407;-39
2022/06/11 00:03:17;;;;;;;5.32;4.82;;;20.70;39.60;;;;;;5051705;28;20447;-39
2022/06/11 00:05:43;;;;;;;6.17;5.07;;;20.70;39.60;;;;;;5051555;28;20248;-39
2022/06/11 00:08:09;;;;;;;5.07;3.50;;;20.70;39.70;;;;;;5033780;28;20457;-39
2022/06/11 00:10:36;;;;;;;4.20;3.77;;;20.70;39.90;;;;;;5051867;28;20419;-38
2022/06/11 00:13:03;;;;;;;4.83;4.43;;;20.60;39.80;;;;;;5051904;28;20435;-39
2022/06/11 00:15:28;;;;;;;4.73;4.33;;;20.60;39.70;;;;;;5051821;28;20489;-39
2022/06/11 00:17:56;;;;;;;5.53;4.30;;;20.50;39.80;;;;;;5052199;28;20951;-38
2022/06/11 00:20:22;;;;;;;4.97;4.05;;;20.50;40.60;;;;;;5055523;28;20741;-39
2022/06/11 00:22:48;;;;;;;5.50;5.00;;;20.50;40.00;;;;;;5055634;28;20541;-39
2022/06/11 00:25:14;;;;;;;5.93;4.93;;;20.50;40.10;;;;;;5055524;28;20483;-39
2022/06/11 00:27:40;;;;;;;5.13;4.63;;;20.40;40.20;;;;;;5055504;28;20411;-39
2022/06/11 00:30:07;;;;;;;5.70;5.10;;;20.40;40.30;;;;;;5055547;28;20689;-39
2022/06/11 00:32:33;;;;;;;5.68;5.18;;;20.30;40.40;;;;;;5055415;28;20201;-39
2022/06/11 00:35:02;;;;;;;6.20;5.60;;;20.30;40.50;;;;;;5055508;28;20200;-39
2022/06/11 00:37:28;;;;;;;10.67;5.47;;;20.30;40.20;;;;;;5055189;28;20560;-39
2022/06/11 00:39:54;;;;;;;6.90;5.23;;;20.20;40.30;;;;;;5055373;28;20446;-39
2022/06/11 00:42:24;;;;;;;4.53;4.13;;;20.20;40.20;;;;;;5055113;28;20208;-39
2022/06/11 00:45:12;;;;;;;4.72;4.32;;;20.20;40.40;;;;;;5055111;28;20211;-39
2022/06/11 00:47:38;;;;;;;6.38;5.70;;;20.10;40.70;;;;;;5055316;28;20185;-39
2022/06/11 00:50:24;;;;;;;4.95;4.45;;;20.10;40.80;;;;;;5055285;28;20180;-39
2022/06/11 00:52:50;;;;;;;4.75;4.35;;;20.10;40.80;;;;;;5055128;28;20197;-39
2022/06/11 00:55:36;;;;;;;5.60;5.10;;;20.00;41.00;;;;;;5054884;28;20169;-39
2022/06/11 00:58:04;;;;;;;6.38;4.95;;;20.00;40.80;;;;;;5054842;28;20201;-39
2022/06/11 01:00:39;;;;;;;6.40;4.15;;;20.00;41.20;;;;;;5055090;28;20173;-39
2022/06/11 01:03:06;;;;;;;4.63;4.03;;;19.90;41.20;;;;;;5054795;28;20188;-39
2022/06/11 01:05:35;;;;;;;4.88;4.25;;;19.90;41.00;;;;;;5054924;28;20254;-39
2022/06/11 01:08:28;;;;;;;5.10;4.60;;;19.80;41.10;;;;;;5054597;28;20204;-39
2022/06/11 01:11:15;;;;;;;4.63;4.13;;;19.80;41.20;;;;;;5054880;28;20200;-38
2022/06/11 01:14:06;;;;;;;5.13;4.10;;;19.70;41.30;;;;;;5054875;28;20246;-38
2022/06/11 01:16:57;;;;;;;5.05;4.22;;;19.70;41.40;;;;;;5054531;28;20197;-38
2022/06/11 01:19:54;;;;;;;5.40;4.90;;;19.70;41.40;;;;;;5054540;28;20170;-38
2022/06/11 01:22:45;;;;;;;6.43;5.35;;;19.60;41.50;;;;;;5054493;28;20239;-38
2022/06/11 01:25:40;;;;;;;4.88;4.47;;;19.60;41.60;;;;;;5054481;28;20166;-37
2022/06/11 01:28:38;;;;;;;6.75;5.25;;;19.60;41.70;;;;;;5054448;28;20165;-38
2022/06/11 01:31:14;;;;;;;5.10;4.60;;;19.50;41.70;;;;;;5053504;28;20157;-38
2022/06/11 01:33:44;;;;;;;4.50;4.07;;;19.50;41.60;;;;;;5054585;28;20208;-39
2022/06/11 01:36:23;;;;;;;10.43;4.70;;;19.50;41.90;;;;;;5054196;28;20166;-38
2022/06/11 01:39:15;;;;;;;5.15;4.38;;;19.50;41.70;;;;;;5054080;28;20455;-38
2022/06/11 01:42:03;;;;;;;4.97;4.25;;;19.50;41.70;;;;;;5053958;28;20247;-38
2022/06/11 01:44:36;;;;;;;4.80;4.35;;;19.50;41.70;;;;;;5053802;28;20174;-38
2022/06/11 01:47:03;;;;;;;5.70;5.22;;;19.50;41.80;;;;;;5053913;28;20534;-38
2022/06/11 01:49:29;;;;;;;4.88;4.38;;;19.50;41.80;;;;;;5053987;28;20179;-38
2022/06/11 01:52:29;;;;;;;5.03;4.53;;;19.50;41.70;;;;;;5053845;28;20238;-39
2022/06/11 01:55:42;;;;;;;4.80;4.40;;;19.50;41.80;;;;;;5053779;28;20180;-38
2022/06/11 01:58:16;;;;;;;5.53;5.00;;;19.40;41.80;;;;;;4972590;28;20207;-39
2022/06/11 02:00:55;;;;;;;4.68;4.13;;;19.40;41.90;;;;;;4972831;28;20172;-38
2022/06/11 02:03:35;;;;;;;5.20;4.70;;;19.30;42.10;;;;;;4972662;28;20700;-38
2022/06/11 02:06:07;;;;;;;5.97;5.38;;;19.30;42.30;;;;;;4972644;28;20683;-38
2022/06/11 02:09:01;;;;;;;6.30;4.95;;;19.30;42.60;;;;;;4972521;28;20192;-39
2022/06/11 02:11:47;;;;;;;5.47;4.57;;;19.20;42.30;;;;;;4972503;28;20211;-38
2022/06/11 02:14:33;;;;;;;5.85;5.15;;;19.20;42.20;;;;;;4972429;28;20172;-38
2022/06/11 02:17:06;;;;;;;6.32;5.72;;;19.20;42.30;;;;;;4971505;28;20219;-38
2022/06/11 02:19:38;;;;;;;5.82;4.93;;;19.20;42.20;;;;;;4972532;28;20196;-38
2022/06/11 02:22:16;;;;;;;6.25;5.30;;;19.20;42.30;;;;;;4972327;28;20211;-39
2022/06/11 02:24:56;;;;;;;5.18;4.55;;;19.20;42.30;;;;;;4972371;28;20171;-38
2022/06/11 02:27:26;;;;;;;4.82;4.43;;;19.20;42.30;;;;;;4972176;28;20172;-39
2022/06/11 02:29:54;;;;;;;5.03;4.45;;;19.10;42.40;;;;;;5050822;28;20181;-39
2022/06/11 02:32:23;;;;;;;4.60;4.20;;;19.10;42.60;;;;;;5053435;28;20280;-38
2022/06/11 02:34:58;;;;;;;6.15;4.45;;;19.10;42.50;;;;;;5053291;28;20650;-38
2022/06/11 02:37:34;;;;;;;5.40;4.90;;;19.10;42.50;;;;;;5052994;28;20189;-38
2022/06/11 02:40:11;;;;;;;4.80;4.40;;;19.10;42.40;;;;;;5053053;28;20180;-39
2022/06/11 02:42:38;;;;;;;7.22;5.05;;;19.10;42.50;;;;;;5052705;28;20254;-38
2022/06/11 02:45:05;;;;;;;4.90;4.40;;;19.00;42.50;;;;;;5052742;28;20231;-38
2022/06/11 02:47:31;;;;;;;4.85;4.35;;;19.00;42.50;;;;;;5052879;28;20169;-39
2022/06/11 02:49:57;;;;;;;5.90;5.30;;;19.00;42.80;;;;;;5052857;28;20700;-39
2022/06/11 02:52:25;;;;;;;4.90;4.40;;;19.00;42.70;;;;;;5052831;28;20193;-38
2022/06/11 02:54:52;;;;;;;4.95;4.55;;;18.90;42.80;;;;;;5052685;28;20399;-39
2022/06/11 02:57:24;;;;;;;6.20;5.60;;;18.90;42.80;;;;;;5052573;28;20565;-39
2022/06/11 02:59:50;;;;;;;7.05;4.85;;;18.90;42.80;;;;;;5052830;28;20177;-38
2022/06/11 03:02:16;;;;;;;4.93;4.53;;;18.90;42.80;;;;;;5052532;28;20251;-38
2022/06/11 03:04:43;;;;;;;5.47;4.97;;;18.90;42.90;;;;;;5052357;28;20534;-38
2022/06/11 03:07:09;;;;;;;5.43;4.93;;;18.90;42.80;;;;;;5052823;28;20226;-38
2022/06/11 03:09:38;;;;;;;4.75;4.30;;;18.90;42.80;;;;;;5052503;28;20573;-38
2022/06/11 03:12:05;;;;;;;5.25;4.75;;;18.90;42.90;;;;;;5052445;28;20197;-37
2022/06/11 03:14:31;;;;;;;5.63;4.65;;;18.90;42.90;;;;;;5052387;28;20188;-38
2022/06/11 03:16:57;;;;;;;6.10;5.50;;;18.80;42.90;;;;;;5052528;28;20224;-39
2022/06/11 03:19:23;;;;;;;5.97;5.40;;;18.80;42.80;;;;;;5052283;28;20704;-38
2022/06/11 03:21:53;;;;;;;4.30;3.83;;;18.80;43.00;;;;;;5034349;28;20189;-38
2022/06/11 03:24:19;;;;;;;5.40;5.00;;;18.80;43.10;;;;;;5052369;28;20266;-38
2022/06/11 03:26:47;;;;;;;5.90;5.07;;;18.80;43.20;;;;;;5052225;28;20165;-38
2022/06/11 03:29:15;;;;;;;5.30;4.82;;;18.80;43.10;;;;;;5052184;28;20165;-38
2022/06/11 03:31:43;;;;;;;5.95;5.43;;;18.80;43.10;;;;;;5052180;28;20700;-38
2022/06/11 03:34:10;;;;;;;7.40;5.35;;;18.80;43.20;;;;;;5052171;28;20600;-38
2022/06/11 03:36:36;;;;;;;5.93;5.35;;;18.80;43.40;;;;;;5052066;28;20169;-38
2022/06/11 03:39:02;;;;;;;5.57;5.07;;;18.80;43.20;;;;;;5051982;28;20199;-38
2022/06/11 03:41:28;;;;;;;5.68;4.30;;;18.80;43.40;;;;;;5051784;28;20447;-39
2022/06/11 03:43:54;;;;;;;5.07;4.57;;;18.90;43.30;;;;;;5052100;28;20227;-38
2022/06/11 03:46:21;;;;;;;6.33;4.97;;;18.90;43.40;;;;;;5051769;28;20435;-38
2022/06/11 03:48:47;;;;;;;5.63;4.45;;;18.90;43.50;;;;;;5051995;28;20407;-38
2022/06/11 03:51:13;;;;;;;5.00;4.60;;;18.90;43.60;;;;;;5051859;28;20250;-38
2022/06/11 03:53:40;;;;;;;5.60;5.07;;;19.00;43.40;;;;;;5051414;28;20252;-38
2022/06/11 03:56:09;;;;;;;5.18;4.68;;;19.00;43.50;;;;;;5051876;28;20661;-38
2022/06/11 03:58:36;;;;;;;5.40;4.90;;;19.00;43.40;;;;;;5051747;28;20688;-38
2022/06/11 04:01:15;;;;;;;6.50;4.63;;;19.00;43.50;;;;;;5051965;28;20177;-39
2022/06/11 04:03:51;;;;;;;5.47;5.07;;;19.00;43.90;;;;;;5051951;28;20172;-38
2022/06/11 04:06:31;;;;;;;5.70;5.00;;;19.10;43.90;;;;;;5051699;28;20164;-39
2022/06/11 04:08:58;;;;;;;6.03;5.47;;;19.10;43.60;;;;;;5051796;28;20180;-39
2022/06/11 04:11:24;;;;;;;5.72;5.13;;;19.10;43.60;;;;;;5051638;28;20661;-38
2022/06/11 04:13:53;;;;;;;6.38;5.78;;;19.20;43.40;;;;;;5051751;28;20632;-39
2022/06/11 04:16:27;;;;;;;5.70;5.20;;;19.20;43.60;;;;;;5051754;28;20181;-38
2022/06/11 04:18:54;;;;;;;5.50;4.65;;;19.20;43.50;;;;;;5051702;28;20205;-39
2022/06/11 04:21:21;;;;;;;5.40;4.90;;;19.20;43.60;;;;;;5051816;28;20177;-39
2022/06/11 04:23:49;;;;;;;6.30;5.75;;;19.20;43.50;;;;;;5051781;28;20177;-39
2022/06/11 04:26:20;;;;;;;4.53;4.00;;;19.30;43.70;;;;;;5051530;28;20184;-39
2022/06/11 04:28:46;;;;;;;6.53;5.28;;;19.30;43.60;;;;;;5051567;28;20248;-38
2022/06/11 04:31:15;;;;;;;6.10;5.00;;;19.40;43.60;;;;;;5051544;28;20259;-38
2022/06/11 04:33:42;;;;;;;6.03;5.43;;;19.50;43.50;;;;;;5051658;28;20461;-38
2022/06/11 04:36:09;;;;;;;5.05;4.65;;;19.50;43.30;;;;;;5051869;28;20183;-38
2022/06/11 04:38:36;;;;;;;5.40;4.90;;;19.60;43.30;;;;;;5051385;28;20587;-39
2022/06/11 04:41:01;;;;;;;6.97;5.45;;;19.70;43.20;;;;;;5051580;28;20576;-39
2022/06/11 04:43:27;;;;;;;5.53;5.03;;;19.80;43.00;;;;;;5051686;28;20273;-38
2022/06/11 04:45:53;;;;;;;5.47;4.97;;;19.90;43.10;;;;;;5051398;28;20165;-39
2022/06/11 04:48:19;;;;;;;5.40;4.90;;;19.90;42.80;;;;;;5051590;28;20239;-38
2022/06/11 04:50:45;;;;;;;5.83;5.17;;;20.10;42.80;;;;;;5051441;28;20161;-39
2022/06/11 04:53:10;;;;;;;5.37;4.87;;;20.20;42.60;;;;;;5051201;28;20243;-39
2022/06/11 04:55:36;;;;;;;5.47;5.00;;;20.30;43.30;;;;;;5051483;28;20173;-39
2022/06/11 04:58:02;;;;;;;5.70;5.10;;;20.30;42.50;;;;;;5051550;28;20535;-39
2022/06/11 05:00:31;;;;;;;4.82;4.43;;;20.40;42.40;;;;;;5051400;28;20165;-38
2022/06/11 05:02:58;;;;;;;5.80;5.30;;;20.40;42.10;;;;;;5051263;28;20217;-39
2022/06/11 05:05:25;;;;;;;7.20;5.10;;;20.40;41.90;;;;;;5052358;28;20185;-39
2022/06/11 05:07:52;;;;;;;4.93;4.40;;;20.50;42.00;;;;;;5054715;28;20184;-39
2022/06/11 05:10:20;;;;;;;5.65;4.72;;;20.50;41.90;;;;;;5055172;28;20650;-39
2022/06/11 05:12:46;;;;;;;4.65;4.25;;;20.50;41.60;;;;;;5054756;28;20224;-39
2022/06/11 05:15:13;;;;;;;4.77;4.37;;;20.50;41.60;;;;;;5054610;28;20270;-39
2022/06/11 05:17:39;;;;;;;4.47;3.75;;;20.60;41.50;;;;;;5054624;28;20546;-39
2022/06/11 05:20:07;;;;;;;5.28;4.78;;;20.60;41.40;;;;;;5054612;28;20170;-39
2022/06/11 05:22:33;;;;;;;5.70;4.22;;;20.60;41.50;;;;;;5054460;28;20723;-39
2022/06/11 05:24:59;;;;;;;5.10;4.27;;;20.70;41.60;;;;;;5054750;28;20185;-38
2022/06/11 05:27:26;;;;;;;4.30;3.87;;;20.80;41.30;;;;;;5054541;28;20415;-38
2022/06/11 05:30:23;;;;;;;5.22;4.72;;;20.80;41.30;;;;;;5054526;28;20252;-39
2022/06/11 05:32:49;;;;;;;5.00;3.45;;;20.90;41.10;;;;;;5046398;28;20200;-38
2022/06/11 05:35:19;;;;;;;4.22;3.83;;;20.90;41.00;;;;;;5054177;28;20177;-38
2022/06/11 05:37:46;;;;;;;4.23;3.83;;;21.00;41.00;;;;;;5036414;28;20546;-39
2022/06/11 05:40:15;;;;;;;8.60;4.57;;;21.10;41.10;;;;;;5054203;28;20734;-39
2022/06/11 05:42:47;;;;;;;4.05;3.65;;;21.20;40.80;;;;;;5053983;28;20697;-38
2022/06/11 05:45:16;;;;;;;4.85;4.45;;;21.20;40.70;;;;;;5053858;28;20238;-39
2022/06/11 05:47:43;;;;;;;4.60;4.00;;;21.20;40.30;;;;;;5054042;28;20530;-38
2022/06/11 05:50:13;;;;;;;4.80;4.40;;;21.30;40.20;;;;;;5054056;28;20645;-39
2022/06/11 05:52:45;;;;;;;5.90;3.55;;;21.30;40.50;;;;;;5054031;28;20232;-39
2022/06/11 05:55:24;;;;;;;4.85;4.07;;;21.40;40.50;;;;;;5053959;28;20173;-38
2022/06/11 05:57:52;;;;;;;4.00;3.60;;;21.40;40.20;;;;;;5053921;28;20189;-38
2022/06/11 06:00:20;;;;;;;3.95;3.40;;;21.50;39.70;;;;;;5054149;28;20166;-38
2022/06/11 06:02:47;;;;;;;6.30;4.07;;;21.60;40.10;;;;;;5053817;28;20193;-39
2022/06/11 06:05:17;;;;;;;6.72;4.32;;;21.70;39.90;;;;;;5053873;28;20166;-39
2022/06/11 06:07:42;;;;;;;4.10;3.70;;;21.80;39.80;;;;;;5053817;28;20195;-38
2022/06/11 06:10:08;;;;;;;4.47;3.70;;;21.90;39.90;;;;;;5053646;28;20276;-38
2022/06/11 06:12:36;;;;;;;3.63;3.33;;;22.10;39.90;;;;;;5053692;28;20282;-39
2022/06/11 06:15:11;;;;;;;5.55;4.15;;;22.10;39.90;;;;;;5053671;28;20724;-39
2022/06/11 06:17:38;;;;;;;4.73;3.93;;;22.30;39.60;;;;;;5053048;28;20200;-38
2022/06/11 06:20:06;;;;;;;3.83;3.43;;;22.40;39.50;;;;;;5053752;28;20408;-39
2022/06/11 06:22:33;;;;;;;4.13;3.73;;;22.50;39.70;;;;;;5053583;28;20420;-39
2022/06/11 06:24:58;;;;;;;4.20;3.80;;;22.70;39.60;;;;;;5053206;28;20403;-38
2022/06/11 06:27:24;;;;;;;4.17;3.77;;;22.80;39.40;;;;;;5053277;28;20775;-38
2022/06/11 06:29:50;;;;;;;3.80;3.40;;;23.10;39.50;;;;;;5053493;28;20446;-39
2022/06/11 06:32:16;;;;;;;4.30;3.30;;;23.20;39.30;;;;;;5053236;28;20438;-39
2022/06/11 06:34:42;;;;;;;5.20;3.70;;;23.30;39.10;;;;;;5053151;28;20485;-39
2022/06/11 06:37:08;;;;;;;3.67;3.30;;;23.50;39.10;;;;;;5053117;28;20173;-39
2022/06/11 06:39:33;;;;;;;4.00;3.60;;;23.70;38.90;;;;;;5053278;28;20181;-39
2022/06/11 06:41:59;;;;;;;5.20;3.50;;;23.80;38.90;;;;;;5053029;28;20239;-39
2022/06/11 06:44:25;;;;;;;3.57;3.27;;;23.90;38.70;;;;;;5052975;28;20400;-39
2022/06/11 06:46:51;;;;;;;7.60;4.17;;;24.00;38.30;;;;;;5053303;28;20169;-39
2022/06/11 06:49:17;;;;;;;3.63;3.33;;;24.00;37.70;;;;;;5055427;28;20433;-39
2022/06/11 06:51:43;;;;;;;4.53;3.57;;;24.10;37.90;;;;;;5056237;28;20189;-39
2022/06/11 06:54:09;;;;;;;3.97;3.57;;;24.10;38.30;;;;;;5055722;28;20763;-39
2022/06/11 06:56:35;;;;;;;3.40;2.77;;;24.30;38.50;;;;;;5036194;28;20411;-38
2022/06/11 06:59:05;;;;;;;4.30;3.93;;;24.40;38.50;;;;;;5052656;28;20455;-38
2022/06/11 07:01:31;;;;;;;3.23;2.93;;;24.60;38.30;;;;;;5052663;28;20276;-39
2022/06/11 07:03:58;;;;;;;3.93;3.57;;;24.70;38.50;;;;;;5052680;28;20407;-39
2022/06/11 07:06:25;;;;;;;3.93;2.80;;;24.90;38.30;;;;;;5052426;28;20717;-39
2022/06/11 07:08:53;;;;;;;4.13;3.73;;;24.90;38.10;;;;;;5052559;28;20922;-39
2022/06/11 07:11:19;;;;;;;4.27;3.40;;;25.10;37.90;;;;;;5052372;28;20498;-39
2022/06/11 07:13:46;;;;;;;3.30;2.80;;;25.20;37.60;;;;;;5052923;28;20419;-39
2022/06/11 07:16:18;;;;;;;3.40;2.87;;;25.30;37.60;;;;;;5052370;28;20416;-39
2022/06/11 07:18:53;;;;;;;2.90;2.60;;;25.40;37.60;;;;;;5052283;28;20443;-39
2022/06/11 07:21:30;;;;;;;3.80;2.97;;;25.60;37.50;;;;;;5052378;28;20402;-39
2022/06/11 07:24:01;;;;;;;3.00;2.70;;;25.70;37.00;;;;;;5052181;28;20979;-39
2022/06/11 07:26:33;;;;;;;2.87;2.57;;;25.80;37.00;;;;;;5052354;28;20491;-39
2022/06/11 07:29:03;;;;;;;3.30;3.00;;;25.90;36.70;;;;;;5051489;28;20482;-39
2022/06/11 07:31:30;;;;;;;2.67;2.03;;;26.00;36.40;;;;;;5052099;28;20769;-39
2022/06/11 07:33:58;;;;;;;3.57;2.33;;;26.10;36.70;;;;;;5052404;28;20427;-39
2022/06/11 07:36:25;;;;;;;3.07;2.47;;;26.20;36.60;;;;;;5052217;28;20408;-39
2022/06/11 07:38:51;;;;;;;3.07;2.77;;;26.20;36.20;;;;;;5051924;28;20447;-39
2022/06/11 07:41:17;;;;;;;2.73;2.33;;;26.30;35.20;;;;;;5051783;28;20435;-38
2022/06/11 07:43:43;;;;;;;2.80;2.40;;;26.40;35.30;;;;;;5052092;28;20404;-39
2022/06/11 07:46:09;;;;;;;2.87;2.23;;;26.40;35.60;;;;;;5051898;28;20404;-39
2022/06/11 07:48:35;;;;;;;4.10;2.47;;;26.50;35.80;;;;;;5051863;28;20181;-39
2022/06/11 07:51:00;;;;;;;4.70;3.40;;;26.70;34.70;;;;;;5052019;28;20181;-39
2022/06/11 07:53:26;;;;;;;2.97;2.30;;;26.70;34.60;;;;;;5052019;28;20189;-39
2022/06/11 07:55:54;;;;;;;3.70;2.23;;;26.80;34.90;;;;;;5052212;28;20422;-39
2022/06/11 07:58:25;;;;;;;3.20;2.10;;;27.00;35.80;;;;;;5052548;28;20474;-38
2022/06/11 08:00:53;;;;;;;8.03;2.40;;;27.10;35.70;;;;;;5051962;28;20886;-37
2022/06/11 08:03:20;;;;;;;3.97;2.60;;;27.20;35.20;;;;;;5051812;28;20459;-39
2022/06/11 08:05:46;;;;;;;3.20;2.47;;;27.40;35.20;;;;;;5051651;28;20767;-38
2022/06/11 08:08:12;;;;;;;4.07;2.63;;;27.50;35.10;;;;;;5051617;28;20958;-37
2022/06/11 08:10:41;;;;;;;2.40;2.03;;;27.70;35.20;;;;;;5051753;28;20415;-38
2022/06/11 08:13:08;;;;;;;3.80;2.07;;;27.80;34.10;;;;;;5051871;28;20823;-39
2022/06/11 08:15:34;;;;;;;2.60;1.87;;;27.90;34.20;;;;;;5051664;28;20973;-38
2022/06/11 08:18:00;;;;;;;3.10;1.70;;;28.00;34.30;;;;;;5051750;28;20456;-38
2022/06/11 08:20:29;;;;;;;2.77;1.97;;;28.20;34.00;;;;;;5051581;28;20404;-38
2022/06/11 08:22:56;;;;;;;3.00;1.73;;;28.30;32.80;;;;;;5051528;28;20198;-38
2022/06/11 08:25:22;;;;;;;9.33;2.13;;;28.40;31.30;;;;;;5051440;28;20400;-38
2022/06/11 08:27:49;;;;;;;2.87;2.10;;;28.50;29.40;;;;;;5051440;28;20407;-38
2022/06/11 08:30:19;;;;;;;2.63;1.73;;;28.50;30.80;;;;;;5051766;28;20436;-40
2022/06/11 08:32:46;;;;;;;2.00;1.30;;;28.70;31.60;;;;;;5051680;28;20935;-38
2022/06/11 08:35:12;;;;;;;3.10;1.87;;;28.80;31.40;;;;;;5051408;28;20410;-39
2022/06/11 08:37:38;;;;;;;2.20;1.87;;;29.00;31.70;;;;;;5051345;28;20451;-38
2022/06/11 08:40:07;;;;;;;2.07;1.60;;;29.20;30.70;;;;;;5053800;28;20764;-38
2022/06/11 08:42:47;;;;;;;2.13;1.63;;;29.30;30.30;;;;;;5055112;28;20939;-38
2022/06/11 08:45:20;;;;;;;5.20;1.53;;;29.30;28.80;;;;;;5055095;28;20447;-38
2022/06/11 08:47:50;;;;;;;2.27;1.60;;;29.30;28.90;;;;;;5055463;28;20748;-39
2022/06/11 08:50:29;;;;;;;1.73;1.30;;;29.20;29.10;;;;;;5055166;28;20810;-38
2022/06/11 08:52:55;;;;;;;4.33;1.37;;;29.10;27.70;;;;;;5055179;28;20423;-39
2022/06/11 08:55:21;;;;;;;2.53;1.77;;;28.90;27.40;;;;;;5055269;28;20430;-37
2022/06/11 08:57:53;;;;;;;3.50;2.30;;;28.80;28.10;;;;;;5054821;28;20259;-37
2022/06/11 09:00:43;;;;;;;3.20;1.50;;;28.80;26.50;;;;;;5055066;28;20922;-39
2022/06/11 09:03:33;;;;;;;4.20;1.67;;;28.90;25.30;;;;;;5044036;28;20439;-38
2022/06/11 09:06:29;;;;;;;1.77;0.93;;;29.00;27.90;;;;;;5054937;28;20749;-38
2022/06/11 09:09:19;;;;;;;2.23;1.30;;;29.20;23.90;;;;;;5054671;28;20392;-38
2022/06/11 09:11:54;;;;;;;2.60;1.27;;;29.30;25.40;;;;;;5054701;28;20856;-38
2022/06/11 09:14:46;;;;;;;2.70;1.27;;;29.40;23.70;;;;;;5054629;28;20472;-39
2022/06/11 09:17:37;;;;;;;3.63;1.33;;;29.50;25.80;;;;;;5054723;28;20400;-39
2022/06/11 09:20:13;;;;;;;3.17;1.50;;;29.60;27.10;;;;;;5054898;28;20384;-38
2022/06/11 09:23:08;;;;;;;1.90;1.27;;;29.50;26.70;;;;;;5054420;28;20472;-39
2022/06/11 09:25:43;;;;;;;3.03;1.40;;;29.50;25.90;;;;;;5054647;28;20436;-39
2022/06/11 09:28:17;;;;;;;1.63;1.13;;;29.50;26.00;;;;;;5054288;28;20407;-39
2022/06/11 09:30:49;;;;;;;2.10;1.30;;;29.60;25.60;;;;;;5054504;28;20391;-39
2022/06/11 09:33:20;;;;;;;1.80;1.30;;;29.60;24.20;;;;;;5054604;28;20765;-37
2022/06/11 09:36:02;;;;;;;2.33;1.20;;;29.60;23.70;;;;;;5054255;28;20952;-38
2022/06/11 09:38:30;;;;;;;1.87;1.30;;;29.70;25.00;;;;;;5054067;28;20505;-37
2022/06/11 09:41:18;;;;;;;3.80;0.83;;;29.90;26.80;;;;;;5054281;28;20485;-37
2022/06/11 09:44:03;;;;;;;4.80;1.80;;;30.20;26.20;;;;;;5054101;28;20745;-38
2022/06/11 09:46:47;;;;;;;2.03;1.33;;;30.40;23.70;;;;;;5054277;28;20391;-39
2022/06/11 09:49:26;;;;;;;3.57;1.43;;;30.60;25.40;;;;;;5053965;28;20538;-39
2022/06/11 09:52:20;;;;;;;5.60;1.47;;;30.80;25.70;;;;;;5053158;28;20419;-38
2022/06/11 09:55:17;;;;;;;2.10;1.60;;;30.90;25.20;;;;;;5053817;28;20421;-38
2022/06/11 09:58:01;;;;;;;1.97;1.43;;;30.80;25.00;;;;;;5053810;28;20483;-39
2022/06/11 10:00:42;;;;;;;4.40;1.40;;;30.50;23.10;;;;;;5053777;28;20396;-38
2022/06/11 10:03:35;;;;;;;2.00;1.10;;;30.40;24.10;;;;;;5053841;28;20428;-37
2022/06/11 10:06:29;;;;;;;2.33;1.47;;;30.30;25.20;;;;;;5053678;28;20956;-37
2022/06/11 10:09:04;;;;;;;2.27;1.03;;;30.40;23.00;;;;;;5053634;28;20481;-39
2022/06/11 10:11:33;;;;;;;2.67;1.20;;;30.40;23.40;;;;;;5053519;28;20419;-39
2022/06/11 10:14:29;;;;;;;2.20;1.00;;;30.50;25.00;;;;;;5053334;28;20987;-39
2022/06/11 10:17:25;;;;;;;1.83;1.20;;;30.70;24.10;;;;;;5053649;28;20403;-39
2022/06/11 10:19:56;;;;;;;2.37;1.13;;;30.90;24.50;;;;;;5053791;28;20421;-39
2022/06/11 10:23:01;;;;;;;2.10;1.37;;;31.10;24.00;;;;;;5053240;28;20529;-39
2022/06/11 10:25:32;;;;;;;2.27;1.20;;;31.30;22.20;;;;;;5053171;28;20431;-38
2022/06/11 10:28:54;;;;;;;2.30;0.80;;;31.30;20.80;;;;;;5053671;28;20411;-39
2022/06/11 10:31:36;;;;;;;3.07;1.40;;;31.10;21.60;;;;;;4971622;28;20518;-39
2022/06/11 10:34:16;;;;;;;3.47;1.57;;;31.10;23.40;;;;;;5053123;28;20399;-39
2022/06/11 10:37:13;;;;;;;3.83;1.50;;;31.20;23.30;;;;;;5053305;28;20483;-38
2022/06/11 10:39:39;;;;;;;2.60;1.30;;;31.30;23.80;;;;;;5048974;28;20511;-39
2022/06/11 10:42:13;;;;;;;1.67;1.10;;;31.20;23.20;;;;;;5053022;28;21018;-39
2022/06/11 10:44:47;;;;;;;4.17;1.37;;;31.20;21.20;;;;;;5052908;28;20172;-38
2022/06/11 10:47:37;;;;;;;3.40;1.40;;;31.00;23.20;;;;;;5053100;28;20979;-38
2022/06/11 10:50:11;;;;;;;1.70;1.10;;;31.10;22.90;;;;;;5052838;28;20400;-39
2022/06/11 10:52:45;;;;;;;1.80;1.20;;;31.20;23.20;;;;;;5053029;28;20430;-39
2022/06/11 10:55:22;;;;;;;2.30;1.30;;;31.40;23.40;;;;;;5052657;28;20403;-39
2022/06/11 10:57:51;;;;;;;2.53;1.27;;;31.60;22.80;;;;;;5052750;28;20447;-38
2022/06/11 11:00:26;;;;;;;2.33;1.70;;;31.60;22.50;;;;;;5052858;28;20404;-38
2022/06/11 11:03:04;;;;;;;1.90;1.10;;;31.70;21.30;;;;;;5052780;28;20411;-38
2022/06/11 11:06:05;;;;;;;4.10;2.00;;;31.60;22.70;;;;;;5034581;28;20408;-39
2022/06/11 11:08:33;;;;;;;2.40;1.27;;;31.50;22.10;;;;;;5052444;28;20486;-38
2022/06/11 11:11:00;;;;;;;1.70;0.97;;;31.40;23.00;;;;;;5034639;28;20437;-39
2022/06/11 11:13:38;;;;;;;2.20;1.20;;;31.60;23.40;;;;;;5052417;28;20419;-39
2022/06/11 11:16:15;;;;;;;2.10;1.23;;;31.60;22.00;;;;;;5052371;28;20402;-39
2022/06/11 11:19:03;;;;;;;2.27;1.20;;;31.70;23.20;;;;;;5052408;28;20447;-39
2022/06/11 11:22:07;;;;;;;3.03;1.20;;;31.70;23.20;;;;;;5052227;28;20462;-38
2022/06/11 11:24:51;;;;;;;2.30;1.30;;;31.60;22.70;;;;;;5052294;28;20486;-38
2022/06/11 11:27:29;;;;;;;1.90;1.27;;;31.40;22.30;;;;;;5053209;28;20478;-39
2022/06/11 11:30:15;;;;;;;2.13;1.27;;;31.20;23.00;;;;;;5052300;28;20399;-39
2022/06/11 11:32:44;;;;;;;2.67;1.40;;;31.10;22.90;;;;;;5052119;28;20515;-40
2022/06/11 11:35:28;;;;;;;4.53;1.50;;;31.20;22.90;;;;;;5052129;28;20400;-40
2022/06/11 11:38:03;;;;;;;1.77;0.97;;;31.40;24.00;;;;;;5052449;28;20567;-39
2022/06/11 11:41:03;;;;;;;2.10;1.30;;;31.70;24.30;;;;;;5052299;28;20391;-40
2022/06/11 11:43:41;;;;;;;4.90;1.77;;;31.90;24.00;;;;;;5047808;28;20951;-40
2022/06/11 11:46:14;;;;;;;1.90;1.20;;;31.90;24.30;;;;;;5052002;28;20390;-40
2022/06/11 11:48:56;;;;;;;2.23;1.27;;;31.90;24.00;;;;;;5051912;28;20400;-40
2022/06/11 11:51:32;;;;;;;1.63;1.07;;;32.00;23.60;;;;;;5051964;28;20403;-40
2022/06/11 11:54:03;;;;;;;1.60;0.97;;;32.10;24.20;;;;;;5051734;28;20534;-39
2022/06/11 11:56:41;;;;;;;2.20;1.47;;;32.20;22.70;;;;;;5051976;28;20919;-40
2022/06/11 11:59:23;;;;;;;1.87;1.13;;;32.20;22.40;;;;;;5051849;28;20451;-40
2022/06/11 12:01:52;;;;;;;2.30;1.50;;;32.40;21.40;;;;;;5052100;28;20776;-40
2022/06/11 12:04:35;;;;;;;1.73;1.10;;;32.50;21.70;;;;;;5051636;28;21041;-40
2022/06/11 12:07:13;;;;;;;2.10;1.40;;;32.60;21.40;;;;;;5051758;28;20396;-40
2022/06/11 12:09:56;;;;;;;4.00;1.50;;;32.60;21.90;;;;;;5051849;28;20768;-40
2022/06/11 12:12:29;;;;;;;2.00;1.10;;;32.60;21.50;;;;;;5051595;28;20427;-40
2022/06/11 12:15:00;;;;;;;2.23;1.30;;;32.50;21.90;;;;;;5053660;28;20436;-40
2022/06/11 12:17:45;;;;;;;2.70;1.10;;;32.60;22.70;;;;;;5055583;28;21089;-40
2022/06/11 12:20:39;;;;;;;2.23;1.13;;;32.60;22.10;;;;;;5055787;28;20403;-40
2022/06/11 12:23:17;;;;;;;2.20;1.50;;;32.60;21.10;;;;;;5055656;28;20419;-39
2022/06/11 12:25:58;;;;;;;1.90;1.20;;;32.60;19.70;;;;;;5055512;28;20801;-40
2022/06/11 12:28:46;;;;;;;1.97;1.23;;;32.60;21.10;;;;;;5055778;28;20427;-40
2022/06/11 12:31:13;;;;;;;2.30;1.30;;;32.80;21.10;;;;;;5055584;28;20887;-40
2022/06/11 12:33:43;;;;;;;2.73;1.00;;;33.00;20.70;;;;;;5055212;28;20900;-40
2022/06/11 12:36:21;;;;;;;6.07;1.77;;;33.10;19.90;;;;;;5055370;28;20430;-40
2022/06/11 12:39:00;;;;;;;2.80;1.40;;;33.20;20.90;;;;;;5055225;28;20451;-40
2022/06/11 12:41:55;;;;;;;2.80;1.20;;;33.30;21.30;;;;;;5055674;28;20764;-40
2022/06/11 12:44:39;;;;;;;1.73;1.23;;;33.30;20.70;;;;;;4983850;28;20503;-40
2022/06/11 12:47:41;;;;;;;2.00;1.40;;;33.20;21.20;;;;;;5055123;28;20860;-40
2022/06/11 12:50:15;;;;;;;1.70;1.27;;;32.90;20.30;;;;;;5029977;28;20419;-40
2022/06/11 12:52:50;;;;;;;2.80;1.20;;;32.70;21.30;;;;;;5055311;28;20430;-40
2022/06/11 12:55:31;;;;;;;1.80;1.20;;;32.60;21.70;;;;;;5054525;28;20466;-40
2022/06/11 12:58:09;;;;;;;2.00;1.13;;;32.60;20.40;;;;;;5053075;28;20439;-40
2022/06/11 13:00:47;;;;;;;2.00;1.30;;;32.70;21.70;;;;;;5054799;28;20438;-40
2022/06/11 13:03:37;;;;;;;1.60;0.90;;;32.70;21.70;;;;;;5055005;28;20420;-40
2022/06/11 13:06:09;;;;;;;2.90;1.07;;;32.80;22.00;;;;;;5043012;28;20450;-40
2022/06/11 13:09:01;;;;;;;2.53;1.53;;;32.90;20.60;;;;;;5054626;28;20400;-40
2022/06/11 13:11:54;;;;;;;2.10;1.10;;;33.00;22.30;;;;;;5023877;28;20469;-40
2022/06/11 13:14:48;;;;;;;2.07;1.17;;;33.20;22.40;;;;;;5054594;28;20432;-40
2022/06/11 13:17:14;;;;;;;2.00;1.20;;;33.30;21.60;;;;;;5054122;28;20407;-40
2022/06/11 13:19:56;;;;;;;3.90;1.40;;;33.20;20.60;;;;;;5054542;28;20407;-40
2022/06/11 13:22:49;;;;;;;2.10;1.40;;;33.10;21.50;;;;;;5054412;28;20190;-40